createdAt,value
2023-05-07T00:01:54.524Z,63.46
2023-05-07T00:04:22.699Z,63.22
2023-05-07T00:06:50.157Z,63.41
2023-05-07T00:09:17.702Z,63.73
2023-05-07T00:11:45.869Z,63.70
2023-05-07T00:14:14.096Z,63.26
2023-05-07T00:16:42.026Z,63.28
2023-05-07T00:19:15.500Z,63.33
2023-05-07T00:21:43.494Z,63.33
2023-05-07T00:24:11.336Z,63.59
2023-05-07T00:26:38.829Z,63.16
2023-05-07T00:29:06.477Z,63.66
2023-05-07T00:31:34.543Z,63.53
2023-05-07T00:34:04.098Z,63.39
2023-05-07T00:36:31.646Z,63.38
2023-05-07T00:39:01.549Z,63.64
2023-05-07T00:41:31.562Z,63.25
2023-05-07T00:43:58.981Z,63.54
2023-05-07T00:46:27.329Z,63.43
2023-05-07T00:48:55.111Z,63.49
2023-05-07T00:51:22.567Z,63.41
2023-05-07T00:53:50.565Z,63.80
2023-05-07T00:56:19.217Z,62.96
2023-05-07T00:58:46.583Z,63.29
2023-05-07T01:01:14.213Z,63.45
2023-05-07T01:03:41.690Z,63.17
2023-05-07T01:06:09.970Z,63.23
2023-05-07T01:08:41.261Z,63.04
2023-05-07T01:11:09.743Z,62.94
2023-05-07T01:13:37.464Z,62.87
2023-05-07T01:16:06.531Z,62.91
2023-05-07T01:18:33.945Z,62.84
2023-05-07T01:21:01.872Z,63.02
2023-05-07T01:23:29.309Z,62.91
2023-05-07T01:25:56.797Z,62.20
2023-05-07T01:28:26.076Z,62.55
2023-05-07T01:30:57.034Z,62.29
2023-05-07T01:33:25.223Z,62.87
2023-05-07T01:36:01.226Z,62.41
2023-05-07T01:38:31.052Z,62.71
2023-05-07T01:40:58.716Z,62.79
2023-05-07T01:43:26.587Z,63.04
2023-05-07T01:45:55.096Z,62.66
2023-05-07T01:48:23.663Z,62.85
2023-05-07T01:50:50.915Z,63.04
2023-05-07T01:53:19.457Z,63.33
2023-05-07T01:55:47.081Z,64.01
2023-05-07T01:58:15.643Z,64.07
2023-05-07T02:00:43.880Z,63.75
2023-05-07T02:03:15.181Z,64.17
2023-05-07T02:05:43.497Z,63.50
2023-05-07T02:08:11.772Z,62.75
2023-05-07T02:10:39.789Z,62.64
2023-05-07T02:13:07.745Z,63.57
2023-05-07T02:15:35.044Z,63.45
2023-05-07T02:18:07.797Z,63.40
2023-05-07T02:20:36.869Z,63.66
2023-05-07T02:23:04.615Z,63.67
2023-05-07T02:25:32.403Z,63.30
2023-05-07T02:28:00.791Z,62.74
2023-05-07T02:30:29.844Z,62.68
2023-05-07T02:32:59.579Z,63.39
2023-05-07T02:35:27.179Z,63.19
2023-05-07T02:37:54.779Z,63.34
2023-05-07T02:40:22.692Z,63.15
2023-05-07T02:42:54.842Z,63.50
2023-05-07T02:45:23.864Z,62.93
2023-05-07T02:47:52.961Z,63.03
2023-05-07T02:50:21.268Z,63.23
2023-05-07T02:52:50.112Z,62.30
2023-05-07T02:55:17.986Z,61.92
2023-05-07T02:57:45.606Z,62.82
2023-05-07T03:00:13.950Z,62.46
2023-05-07T03:02:44.006Z,63.12
2023-05-07T03:05:11.928Z,63.92
2023-05-07T03:07:40.193Z,64.51
2023-05-07T03:10:09.215Z,64.01
2023-05-07T03:12:37.737Z,63.87
2023-05-07T03:15:06.403Z,64.23
2023-05-07T03:17:34.125Z,63.24
2023-05-07T03:20:01.673Z,64.11
2023-05-07T03:22:30.277Z,64.18
2023-05-07T03:24:58.333Z,64.11
2023-05-07T03:27:26.150Z,62.87
2023-05-07T03:29:54.842Z,63.82
2023-05-07T03:32:22.576Z,64.12
2023-05-07T03:34:51.793Z,64.36
2023-05-07T03:37:19.916Z,64.30
2023-05-07T03:39:47.800Z,64.35
2023-05-07T03:42:16.385Z,64.47
2023-05-07T03:44:44.067Z,65.05
2023-05-07T03:47:11.537Z,65.34
2023-05-07T03:49:40.099Z,65.13
2023-05-07T03:52:07.889Z,64.83
2023-05-07T03:54:37.125Z,64.96
2023-05-07T03:57:06.287Z,64.76
2023-05-07T03:59:34.065Z,64.69
2023-05-07T04:02:05.060Z,64.30
2023-05-07T04:04:34.299Z,64.23
2023-05-07T04:07:02.525Z,63.52
2023-05-07T04:09:30.859Z,63.94
2023-05-07T04:12:00.977Z,64.88
2023-05-07T04:14:30.018Z,64.46
2023-05-07T04:16:57.844Z,64.36
2023-05-07T04:19:26.740Z,63.45
2023-05-07T04:21:58.539Z,63.14
2023-05-07T04:24:30.094Z,64.04
2023-05-07T04:26:59.911Z,64.05
2023-05-07T04:29:28.726Z,63.16
2023-05-07T04:31:57.711Z,64.75
2023-05-07T04:34:28.757Z,65.25
2023-05-07T04:36:59.197Z,66.34
2023-05-07T04:39:27.721Z,64.99
2023-05-07T04:41:57.257Z,65.43
2023-05-07T04:44:27.786Z,65.22
2023-05-07T04:46:57.024Z,64.54
2023-05-07T04:49:29.815Z,64.02
2023-05-07T04:51:59.584Z,64.00
2023-05-07T04:54:28.940Z,63.85
2023-05-07T04:56:58.007Z,63.31
2023-05-07T04:59:30.196Z,62.89
2023-05-07T05:01:59.253Z,61.92
2023-05-07T05:04:27.388Z,61.78
2023-05-07T05:06:56.010Z,62.34
2023-05-07T05:09:24.829Z,62.85
2023-05-07T05:11:54.858Z,63.18
2023-05-07T05:14:23.888Z,63.76
2023-05-07T05:17:03.134Z,63.57
2023-05-07T05:19:34.497Z,63.36
2023-05-07T05:22:06.162Z,63.07
2023-05-07T05:24:34.942Z,62.80
2023-05-07T05:27:04.990Z,62.27
2023-05-07T05:32:07.804Z,62.13
2023-05-07T05:34:39.890Z,62.06
2023-05-07T05:37:09.191Z,61.87
2023-05-07T05:39:37.801Z,61.54
2023-05-07T05:42:06.306Z,61.11
2023-05-07T05:44:34.878Z,60.67
2023-05-07T05:47:09.811Z,60.01
2023-05-07T05:49:40.126Z,59.86
2023-05-07T05:52:11.849Z,59.45
2023-05-07T05:54:40.388Z,58.78
2023-05-07T05:57:09.028Z,59.26
2023-05-07T05:59:37.242Z,58.35
2023-05-07T06:02:09.804Z,58.54
2023-05-07T06:04:39.115Z,58.03
2023-05-07T06:07:09.527Z,57.23
2023-05-07T06:09:48.875Z,56.51
2023-05-07T06:12:17.737Z,56.70
2023-05-07T06:14:45.650Z,56.08
2023-05-07T06:17:13.899Z,55.78
2023-05-07T06:19:44.074Z,55.38
2023-05-07T06:22:15.293Z,53.05
2023-05-07T06:24:57.108Z,50.12
2023-05-07T06:27:29.341Z,53.33
2023-05-07T06:30:00.562Z,52.91
2023-05-07T06:32:33.994Z,52.74
2023-05-07T06:35:06.382Z,51.10
2023-05-07T06:37:39.508Z,49.31
2023-05-07T06:40:16.952Z,50.36
2023-05-07T06:42:51.878Z,50.01
2023-05-07T06:45:23.561Z,50.41
2023-05-07T06:47:53.120Z,50.69
2023-05-07T06:50:26.107Z,48.40
2023-05-07T06:52:58.845Z,48.61
2023-05-07T06:55:28.316Z,50.04
2023-05-07T06:57:59.307Z,50.16
2023-05-07T07:00:31.953Z,49.21
2023-05-07T07:03:01.735Z,50.49
2023-05-07T07:05:30.265Z,50.95
2023-05-07T07:08:05.257Z,50.80
2023-05-07T07:10:35.873Z,50.10
2023-05-07T07:13:12.102Z,50.08
2023-05-07T07:15:44.053Z,50.18
2023-05-07T07:18:25.138Z,49.03
2023-05-07T07:21:00.894Z,48.72
2023-05-07T07:23:31.545Z,48.33
2023-05-07T07:26:10.908Z,49.60
2023-05-07T07:28:46.984Z,49.43
2023-05-07T07:31:16.607Z,49.85
2023-05-07T07:33:45.119Z,50.71
2023-05-07T07:39:00.841Z,51.06
2023-05-07T07:41:35.154Z,51.58
2023-05-07T07:44:08.718Z,51.72
2023-05-07T07:46:38.340Z,51.29
2023-05-07T07:49:12.944Z,51.33
2023-05-07T07:54:18.831Z,51.84
2023-05-07T07:56:50.684Z,51.91
2023-05-07T07:59:23.906Z,53.12
2023-05-07T08:02:06.932Z,54.12
2023-05-07T08:04:47.281Z,53.64
2023-05-07T08:12:35.121Z,54.37
2023-05-07T08:15:10.873Z,53.72
2023-05-07T08:17:42.753Z,54.06
2023-05-07T08:20:15.098Z,53.75
2023-05-07T08:22:48.038Z,53.54
2023-05-07T08:25:17.867Z,53.28
2023-05-07T08:27:46.795Z,53.67
2023-05-07T08:30:22.947Z,52.52
2023-05-07T08:32:54.386Z,54.20
2023-05-07T08:35:27.909Z,54.20
2023-05-07T08:37:58.148Z,53.21
2023-05-07T08:40:37.169Z,53.77
2023-05-07T08:43:07.627Z,53.04
2023-05-07T08:45:37.910Z,53.60
2023-05-07T08:48:18.117Z,53.05
2023-05-07T08:50:55.892Z,52.33
2023-05-07T08:53:29.930Z,52.38
2023-05-07T08:55:59.870Z,54.30
2023-05-07T08:58:31.992Z,51.63
2023-05-07T09:01:14.008Z,52.26
2023-05-07T09:03:44.996Z,52.33
2023-05-07T09:06:14.882Z,51.29
2023-05-07T09:11:31.149Z,50.04
2023-05-07T09:14:07.486Z,50.19
2023-05-07T09:16:40.570Z,49.42
2023-05-07T09:19:08.874Z,47.72
2023-05-07T09:21:39.152Z,48.91
2023-05-07T09:24:10.880Z,46.72
2023-05-07T09:26:42.830Z,47.82
2023-05-07T09:29:14.302Z,47.85
2023-05-07T09:31:43.121Z,44.54
2023-05-07T09:34:14.165Z,44.67
2023-05-07T09:36:50.860Z,44.36
2023-05-07T09:39:21.889Z,44.58
2023-05-07T09:42:03.939Z,45.33
2023-05-07T09:44:33.969Z,44.34
2023-05-07T09:47:10.082Z,46.85
2023-05-07T09:49:43.246Z,46.01
2023-05-07T09:52:20.835Z,45.62
2023-05-07T09:57:40.058Z,44.23
2023-05-07T10:00:16.570Z,44.32
2023-05-07T10:02:50.953Z,45.84
2023-05-07T10:05:21.518Z,45.57
2023-05-07T10:07:51.918Z,45.89
2023-05-07T10:12:56.218Z,45.84
2023-05-07T10:15:27.011Z,46.85
2023-05-07T10:17:59.003Z,47.07
2023-05-07T10:20:28.205Z,47.07
2023-05-07T10:22:58.402Z,46.67
2023-05-07T10:25:29.730Z,47.77
2023-05-07T10:28:06.071Z,46.85
2023-05-07T10:30:46.944Z,47.41
2023-05-07T10:33:19.527Z,47.60
2023-05-07T10:35:53.630Z,47.24
2023-05-07T10:38:30.143Z,47.34
2023-05-07T10:40:59.041Z,46.87
2023-05-07T10:43:36.155Z,46.02
2023-05-07T10:46:13.839Z,45.51
2023-05-07T10:49:06.955Z,44.61
2023-05-07T10:51:37.117Z,42.83
2023-05-07T10:54:21.889Z,43.37
2023-05-07T10:59:35.149Z,42.09
2023-05-07T11:02:06.034Z,44.60
2023-05-07T11:04:42.953Z,44.40
2023-05-07T11:07:29.209Z,43.93
2023-05-07T11:10:05.439Z,42.46
2023-05-07T11:12:45.118Z,40.98
2023-05-07T11:15:39.136Z,39.30
2023-05-07T11:18:12.358Z,38.72
2023-05-07T11:20:48.167Z,39.01
2023-05-07T11:23:35.917Z,40.04
2023-05-07T11:26:12.892Z,39.95
2023-05-07T11:28:42.996Z,34.58
2023-05-07T11:31:20.010Z,37.38
2023-05-07T11:33:54.833Z,36.15
2023-05-07T11:36:24.889Z,35.56
2023-05-07T11:38:55.479Z,35.52
2023-05-07T11:41:23.941Z,35.40
2023-05-07T11:43:58.664Z,35.53
2023-05-07T11:46:33.052Z,35.21
2023-05-07T11:49:03.955Z,36.21
2023-05-07T11:51:51.210Z,36.46
2023-05-07T11:54:20.049Z,36.79
2023-05-07T11:56:52.429Z,36.17
2023-05-07T12:01:59.981Z,34.12
2023-05-07T12:04:36.295Z,34.35
2023-05-07T12:07:09.946Z,33.99
2023-05-07T12:09:44.886Z,33.42
2023-05-07T12:12:20.866Z,31.97
2023-05-07T12:14:52.279Z,32.17
2023-05-07T12:20:06.218Z,31.64
2023-05-07T12:22:36.125Z,32.75
2023-05-07T12:25:08.604Z,34.21
2023-05-07T12:27:42.769Z,33.30
2023-05-07T12:30:13.130Z,34.01
2023-05-07T12:32:41.445Z,33.09
2023-05-07T12:35:22.911Z,33.88
2023-05-07T12:37:56.061Z,33.78
2023-05-07T12:40:36.904Z,33.13
2023-05-07T12:43:06.149Z,32.13
2023-05-07T12:45:42.048Z,33.60
2023-05-07T12:48:13.446Z,32.98
2023-05-07T12:50:41.193Z,33.08
2023-05-07T12:53:09.264Z,32.62
2023-05-07T12:55:47.210Z,32.14
2023-05-07T12:58:20.825Z,32.55
2023-05-07T13:01:00.600Z,32.30
2023-05-07T13:03:32.060Z,32.12
2023-05-07T13:06:08.291Z,33.66
2023-05-07T13:08:44.498Z,32.52
2023-05-07T13:11:22.894Z,33.94
2023-05-07T13:13:54.265Z,34.09
2023-05-07T13:16:22.613Z,32.16
2023-05-07T13:18:58.294Z,32.61
2023-05-07T13:21:34.875Z,32.49
2023-05-07T13:24:07.965Z,32.40
2023-05-07T13:26:37.431Z,34.67
2023-05-07T13:29:13.124Z,35.62
2023-05-07T13:31:47.183Z,35.22
2023-05-07T13:34:17.076Z,33.97
2023-05-07T13:36:51.400Z,34.29
2023-05-07T13:39:37.003Z,35.47
2023-05-07T13:42:07.972Z,35.24
2023-05-07T13:44:36.911Z,36.60
2023-05-07T13:47:05.660Z,34.62
2023-05-07T13:49:33.785Z,34.07
2023-05-07T13:52:02.184Z,34.19
2023-05-07T13:54:35.996Z,33.82
2023-05-07T13:57:06.905Z,34.76
2023-05-07T13:59:40.980Z,34.25
2023-05-07T14:02:10.216Z,33.62
2023-05-07T14:04:40.038Z,34.82
2023-05-07T14:07:15.922Z,34.20
2023-05-07T14:09:51.378Z,35.33
2023-05-07T14:12:23.053Z,34.83
2023-05-07T14:17:27.549Z,34.48
2023-05-07T14:20:06.938Z,34.04
2023-05-07T14:22:34.518Z,34.25
2023-05-07T14:25:07.184Z,34.16
2023-05-07T14:27:36.925Z,33.93
2023-05-07T14:32:52.066Z,33.48
2023-05-07T14:35:24.939Z,35.43
2023-05-07T14:38:01.168Z,34.60
2023-05-07T14:40:38.179Z,34.59
2023-05-07T14:43:09.933Z,34.41
2023-05-07T14:48:25.935Z,35.05
2023-05-07T14:50:58.099Z,34.71
2023-05-07T14:53:30.960Z,34.47
2023-05-07T14:56:11.976Z,35.56
2023-05-07T14:58:58.962Z,35.07
2023-05-07T15:01:31.079Z,34.83
2023-05-07T15:04:07.512Z,36.09
2023-05-07T15:06:42.165Z,36.08
2023-05-07T15:09:18.116Z,35.98
2023-05-07T15:11:48.212Z,36.81
2023-05-07T15:14:20.104Z,36.39
2023-05-07T15:19:30.100Z,35.56
2023-05-07T15:22:03.446Z,36.15
2023-05-07T15:24:31.505Z,35.86
2023-05-07T15:27:06.959Z,36.25
2023-05-07T15:32:08.732Z,36.67
2023-05-07T15:34:37.982Z,36.60
2023-05-07T15:37:12.134Z,35.28
2023-05-07T15:39:41.024Z,34.68
2023-05-07T15:44:52.887Z,33.91
2023-05-07T15:47:24.145Z,35.10
2023-05-07T15:52:37.419Z,34.08
2023-05-07T15:57:47.739Z,33.99
2023-05-07T16:00:18.142Z,34.34
2023-05-07T16:03:00.280Z,34.52
2023-05-07T16:05:28.979Z,34.69
2023-05-07T16:08:01.962Z,34.78
2023-05-07T16:10:30.850Z,35.19
2023-05-07T16:15:39.065Z,34.38
2023-05-07T16:18:09.993Z,33.81
2023-05-07T16:20:45.933Z,34.61
2023-05-07T16:23:18.009Z,34.09
2023-05-07T16:25:47.313Z,33.69
2023-05-07T16:28:20.132Z,33.01
2023-05-07T16:30:50.943Z,33.23
2023-05-07T16:33:24.070Z,34.38
2023-05-07T16:35:55.029Z,34.87
2023-05-07T16:38:39.018Z,33.98
2023-05-07T16:41:09.998Z,34.97
2023-05-07T16:43:49.071Z,34.38
2023-05-07T16:46:24.000Z,34.04
2023-05-07T16:48:59.956Z,34.60
2023-05-07T16:51:41.209Z,33.29
2023-05-07T16:54:13.964Z,33.46
2023-05-07T16:56:52.869Z,35.05
2023-05-07T16:59:23.241Z,34.26
2023-05-07T17:01:59.498Z,34.40
2023-05-07T17:09:48.925Z,36.48
2023-05-07T17:12:21.975Z,35.99
2023-05-07T17:14:53.293Z,36.61
2023-05-07T17:17:31.962Z,35.57
2023-05-07T17:20:07.952Z,35.48
2023-05-07T17:22:46.036Z,37.13
2023-05-07T17:27:58.987Z,36.75
2023-05-07T17:30:33.197Z,37.46
2023-05-07T17:33:21.521Z,36.52
2023-05-07T17:38:34.040Z,36.32
2023-05-07T17:43:48.136Z,36.62
2023-05-07T17:46:16.408Z,37.01
2023-05-07T17:48:54.160Z,35.98
2023-05-07T17:51:36.156Z,36.72
2023-05-07T17:54:14.196Z,36.67
2023-05-07T17:56:58.558Z,37.37
2023-05-07T17:59:40.972Z,38.00
2023-05-07T18:02:13.138Z,38.45
2023-05-07T18:07:35.186Z,37.54
2023-05-07T18:10:12.079Z,38.06
2023-05-07T18:12:45.051Z,39.31
2023-05-07T18:15:18.185Z,39.63
2023-05-07T18:23:15.225Z,39.82
2023-05-07T18:25:49.012Z,40.27
2023-05-07T18:28:24.277Z,40.08
2023-05-07T18:30:57.702Z,40.39
2023-05-07T18:33:26.148Z,41.21
2023-05-07T18:35:54.951Z,41.18
2023-05-07T18:38:24.138Z,40.60
2023-05-07T18:40:58.093Z,39.86
2023-05-07T18:43:34.245Z,40.88
2023-05-07T18:46:08.018Z,40.73
2023-05-07T18:48:40.003Z,40.18
2023-05-07T18:51:12.896Z,40.25
2023-05-07T18:56:25.709Z,40.69
2023-05-07T18:58:55.048Z,41.29
2023-05-07T19:03:57.074Z,41.98
2023-05-07T19:06:26.005Z,42.03
2023-05-07T19:08:58.221Z,42.19
2023-05-07T19:16:53.538Z,42.85
2023-05-07T19:19:23.766Z,41.73
2023-05-07T19:22:02.155Z,41.58
2023-05-07T19:24:45.044Z,41.70
2023-05-07T19:27:19.940Z,41.54
2023-05-07T19:29:47.938Z,43.07
2023-05-07T19:32:21.962Z,43.84
2023-05-07T19:34:52.102Z,43.04
2023-05-07T19:37:25.928Z,44.14
2023-05-07T19:40:05.973Z,43.81
2023-05-07T19:42:41.328Z,44.13
2023-05-07T19:45:19.946Z,44.09
2023-05-07T19:47:52.258Z,44.11
2023-05-07T19:50:23.090Z,45.68
2023-05-07T19:52:50.926Z,46.61
2023-05-07T19:55:18.979Z,46.89
2023-05-07T19:57:50.545Z,46.83
2023-05-07T20:03:19.222Z,49.15
2023-05-07T20:05:50.698Z,51.19
2023-05-07T20:08:19.149Z,50.86
2023-05-07T20:10:49.137Z,50.10
2023-05-07T20:13:21.048Z,51.25
2023-05-07T20:16:00.393Z,51.38
2023-05-07T20:18:32.137Z,51.15
2023-05-07T20:21:07.430Z,51.72
2023-05-07T20:23:38.679Z,53.59
2023-05-07T20:26:06.610Z,52.89
2023-05-07T20:28:34.492Z,54.05
2023-05-07T20:31:06.579Z,54.53
2023-05-07T20:33:40.820Z,54.14
2023-05-07T20:36:14.268Z,54.85
2023-05-07T20:38:45.893Z,54.18
2023-05-07T20:41:18.030Z,53.14
2023-05-07T20:43:46.950Z,53.61
2023-05-07T20:46:27.423Z,53.92
2023-05-07T20:48:58.684Z,52.94
2023-05-07T20:51:35.212Z,52.23
2023-05-07T20:54:09.675Z,51.75
2023-05-07T20:56:43.895Z,52.25
2023-05-07T20:59:17.229Z,51.91
2023-05-07T21:01:45.731Z,51.50
2023-05-07T21:04:17.485Z,51.78
2023-05-07T21:06:53.979Z,51.21
2023-05-07T21:09:24.221Z,51.02
2023-05-07T21:11:52.324Z,50.98
2023-05-07T21:14:22.266Z,50.35
2023-05-07T21:16:52.277Z,49.28
2023-05-07T21:19:26.550Z,49.16
2023-05-07T21:22:06.945Z,48.02
2023-05-07T21:24:37.953Z,49.32
2023-05-07T21:27:05.875Z,48.17
2023-05-07T21:29:34.068Z,47.93
2023-05-07T21:32:07.058Z,48.63
2023-05-07T21:34:36.944Z,48.48
2023-05-07T21:37:04.656Z,48.07
2023-05-07T21:39:32.541Z,47.84
2023-05-07T21:42:02.990Z,48.44
2023-05-07T21:44:33.964Z,47.57
2023-05-07T21:47:04.285Z,47.72
2023-05-07T21:49:32.973Z,47.37
2023-05-07T21:52:01.000Z,47.95
2023-05-07T21:54:28.787Z,47.73
2023-05-07T21:56:56.894Z,47.32
2023-05-07T21:59:24.335Z,47.57
2023-05-07T22:01:52.188Z,47.90
2023-05-07T22:04:20.649Z,48.30
2023-05-07T22:06:48.792Z,48.74
2023-05-07T22:09:17.326Z,48.85
2023-05-07T22:11:45.267Z,48.80
2023-05-07T22:14:12.711Z,49.40
2023-05-07T22:16:40.177Z,49.08
2023-05-07T22:19:08.147Z,49.93
2023-05-07T22:21:35.583Z,49.83
2023-05-07T22:24:03.676Z,49.95
2023-05-07T22:26:31.481Z,49.97
2023-05-07T22:28:58.771Z,50.37
2023-05-07T22:31:26.467Z,49.80
2023-05-07T22:33:54.460Z,49.18
2023-05-07T22:36:22.272Z,50.22
2023-05-07T22:38:50.740Z,50.25
2023-05-07T22:41:22.325Z,50.95
2023-05-07T22:43:49.775Z,50.03
2023-05-07T22:46:17.477Z,51.01
2023-05-07T22:48:45.285Z,51.45
2023-05-07T22:51:14.044Z,51.25
2023-05-07T22:53:41.489Z,51.05
2023-05-07T22:56:10.455Z,51.27
2023-05-07T22:58:37.997Z,51.05
2023-05-07T23:01:12.165Z,51.25
2023-05-07T23:03:43.290Z,51.14
2023-05-07T23:06:11.041Z,51.08
2023-05-07T23:08:38.477Z,51.29
2023-05-07T23:11:06.780Z,50.74
2023-05-07T23:13:34.031Z,51.00
2023-05-07T23:16:01.275Z,50.98
2023-05-07T23:18:30.279Z,50.76
2023-05-07T23:20:57.892Z,51.92
2023-05-07T23:23:25.074Z,51.70
2023-05-07T23:25:53.348Z,50.75
2023-05-07T23:28:21.043Z,51.46
2023-05-07T23:30:48.258Z,51.46
2023-05-07T23:33:16.330Z,51.37
2023-05-07T23:35:43.732Z,51.50
2023-05-07T23:38:12.059Z,50.75
2023-05-07T23:40:40.186Z,51.64
2023-05-07T23:43:09.388Z,51.11
2023-05-07T23:45:36.959Z,50.32
2023-05-07T23:48:05.418Z,51.03
2023-05-07T23:50:33.871Z,51.57
2023-05-07T23:53:01.142Z,50.61
2023-05-07T23:55:28.758Z,50.23
2023-05-07T23:57:56.199Z,51.34
